sensor_id;sensor_type;location;lat;lon;timestamp;P1;durP1;ratioP1;P2;durP2;ratioP2
10281;SDS011;5186;59.472;18.048;2023-04-06T00:00:38;4.27;;;2.30;;
10281;SDS011;5186;59.472;18.048;2023-04-06T00:03:04;4.63;;;2.40;;
10281;SDS011;5186;59.472;18.048;2023-04-06T00:05:30;4.30;;;2.40;;
10281;SDS011;5186;59.472;18.048;2023-04-06T00:07:56;3.67;;;2.20;;
10281;SDS011;5186;59.472;18.048;2023-04-06T00:10:23;4.93;;;3.00;;
10281;SDS011;5186;59.472;18.048;2023-04-06T00:12:48;4.33;;;2.90;;
10281;SDS011;5186;59.472;18.048;2023-04-06T00:15:14;5.73;;;3.13;;
10281;SDS011;5186;59.472;18.048;2023-04-06T00:17:40;6.73;;;3.30;;
10281;SDS011;5186;59.472;18.048;2023-04-06T00:20:06;5.47;;;3.20;;
10281;SDS011;5186;59.472;18.048;2023-04-06T00:22:32;5.03;;;3.30;;
10281;SDS011;5186;59.472;18.048;2023-04-06T00:24:58;5.83;;;3.37;;
10281;SDS011;5186;59.472;18.048;2023-04-06T00:27:24;6.47;;;3.70;;
10281;SDS011;5186;59.472;18.048;2023-04-06T00:29:49;5.80;;;3.33;;
10281;SDS011;5186;59.472;18.048;2023-04-06T00:32:15;4.13;;;2.80;;
10281;SDS011;5186;59.472;18.048;2023-04-06T00:34:41;4.50;;;2.67;;
10281;SDS011;5186;59.472;18.048;2023-04-06T00:37:06;5.70;;;3.30;;
10281;SDS011;5186;59.472;18.048;2023-04-06T00:39:32;4.97;;;2.80;;
10281;SDS011;5186;59.472;18.048;2023-04-06T00:41:57;4.27;;;2.70;;
10281;SDS011;5186;59.472;18.048;2023-04-06T00:44:23;5.23;;;2.27;;
10281;SDS011;5186;59.472;18.048;2023-04-06T00:46:49;5.40;;;2.60;;
10281;SDS011;5186;59.472;18.048;2023-04-06T00:49:15;4.80;;;2.60;;
10281;SDS011;5186;59.472;18.048;2023-04-06T00:51:41;4.37;;;2.60;;
10281;SDS011;5186;59.472;18.048;2023-04-06T00:54:06;3.80;;;2.17;;
10281;SDS011;5186;59.472;18.048;2023-04-06T00:56:32;4.20;;;2.40;;
10281;SDS011;5186;59.472;18.048;2023-04-06T00:58:57;3.67;;;2.67;;
10281;SDS011;5186;59.472;18.048;2023-04-06T01:01:23;5.10;;;2.50;;
10281;SDS011;5186;59.472;18.048;2023-04-06T01:03:50;4.43;;;2.50;;
10281;SDS011;5186;59.472;18.048;2023-04-06T01:06:16;3.57;;;2.60;;
10281;SDS011;5186;59.472;18.048;2023-04-06T01:08:42;4.83;;;2.83;;
10281;SDS011;5186;59.472;18.048;2023-04-06T01:11:07;4.63;;;2.40;;
10281;SDS011;5186;59.472;18.048;2023-04-06T01:13:33;3.70;;;2.40;;
10281;SDS011;5186;59.472;18.048;2023-04-06T01:15:58;6.13;;;2.30;;
10281;SDS011;5186;59.472;18.048;2023-04-06T01:18:28;4.13;;;2.33;;
10281;SDS011;5186;59.472;18.048;2023-04-06T01:20:54;3.53;;;2.30;;
10281;SDS011;5186;59.472;18.048;2023-04-06T01:23:20;3.57;;;2.53;;
10281;SDS011;5186;59.472;18.048;2023-04-06T01:25:46;3.77;;;2.40;;
10281;SDS011;5186;59.472;18.048;2023-04-06T01:28:12;3.30;;;2.50;;
10281;SDS011;5186;59.472;18.048;2023-04-06T01:30:37;3.37;;;2.13;;
10281;SDS011;5186;59.472;18.048;2023-04-06T01:33:03;4.83;;;2.33;;
10281;SDS011;5186;59.472;18.048;2023-04-06T01:35:29;3.97;;;2.40;;
10281;SDS011;5186;59.472;18.048;2023-04-06T01:37:55;4.20;;;2.30;;
10281;SDS011;5186;59.472;18.048;2023-04-06T01:40:21;3.13;;;2.30;;
10281;SDS011;5186;59.472;18.048;2023-04-06T01:42:47;3.03;;;2.10;;
10281;SDS011;5186;59.472;18.048;2023-04-06T01:45:12;4.60;;;2.60;;
10281;SDS011;5186;59.472;18.048;2023-04-06T01:47:38;5.37;;;2.20;;
10281;SDS011;5186;59.472;18.048;2023-04-06T01:50:03;3.60;;;2.60;;
10281;SDS011;5186;59.472;18.048;2023-04-06T01:52:31;5.40;;;2.70;;
10281;SDS011;5186;59.472;18.048;2023-04-06T01:54:57;5.53;;;2.30;;
10281;SDS011;5186;59.472;18.048;2023-04-06T01:57:23;4.47;;;2.70;;
10281;SDS011;5186;59.472;18.048;2023-04-06T01:59:50;2.60;;;2.30;;
10281;SDS011;5186;59.472;18.048;2023-04-06T02:02:16;3.60;;;2.60;;
10281;SDS011;5186;59.472;18.048;2023-04-06T02:04:41;4.53;;;2.10;;
10281;SDS011;5186;59.472;18.048;2023-04-06T02:07:07;4.47;;;2.40;;
10281;SDS011;5186;59.472;18.048;2023-04-06T02:09:33;4.23;;;2.50;;
10281;SDS011;5186;59.472;18.048;2023-04-06T02:11:58;2.63;;;2.33;;
10281;SDS011;5186;59.472;18.048;2023-04-06T02:14:24;6.00;;;2.47;;
10281;SDS011;5186;59.472;18.048;2023-04-06T02:16:50;3.40;;;2.23;;
10281;SDS011;5186;59.472;18.048;2023-04-06T02:19:16;3.27;;;2.60;;
10281;SDS011;5186;59.472;18.048;2023-04-06T02:21:42;4.13;;;2.50;;
10281;SDS011;5186;59.472;18.048;2023-04-06T02:24:07;5.80;;;2.30;;
10281;SDS011;5186;59.472;18.048;2023-04-06T02:26:33;4.70;;;2.50;;
10281;SDS011;5186;59.472;18.048;2023-04-06T02:28:59;4.17;;;2.47;;
10281;SDS011;5186;59.472;18.048;2023-04-06T02:31:26;4.03;;;2.27;;
10281;SDS011;5186;59.472;18.048;2023-04-06T02:33:51;4.13;;;2.27;;
10281;SDS011;5186;59.472;18.048;2023-04-06T02:36:17;3.13;;;2.33;;
10281;SDS011;5186;59.472;18.048;2023-04-06T02:38:42;6.07;;;2.70;;
10281;SDS011;5186;59.472;18.048;2023-04-06T02:41:08;3.90;;;2.37;;
10281;SDS011;5186;59.472;18.048;2023-04-06T02:43:34;5.10;;;2.47;;
10281;SDS011;5186;59.472;18.048;2023-04-06T02:46:00;3.27;;;2.30;;
10281;SDS011;5186;59.472;18.048;2023-04-06T02:48:25;3.03;;;2.33;;
10281;SDS011;5186;59.472;18.048;2023-04-06T02:50:51;3.13;;;2.80;;
10281;SDS011;5186;59.472;18.048;2023-04-06T02:53:16;5.60;;;2.73;;
10281;SDS011;5186;59.472;18.048;2023-04-06T02:55:42;3.00;;;2.27;;
10281;SDS011;5186;59.472;18.048;2023-04-06T02:58:07;5.53;;;2.63;;
10281;SDS011;5186;59.472;18.048;2023-04-06T03:00:33;3.43;;;2.43;;
10281;SDS011;5186;59.472;18.048;2023-04-06T03:02:58;2.90;;;2.43;;
10281;SDS011;5186;59.472;18.048;2023-04-06T03:05:24;3.23;;;2.50;;
10281;SDS011;5186;59.472;18.048;2023-04-06T03:07:50;4.57;;;2.40;;
10281;SDS011;5186;59.472;18.048;2023-04-06T03:10:15;3.23;;;2.23;;
10281;SDS011;5186;59.472;18.048;2023-04-06T03:12:41;4.33;;;2.53;;
10281;SDS011;5186;59.472;18.048;2023-04-06T03:15:07;2.73;;;2.17;;
10281;SDS011;5186;59.472;18.048;2023-04-06T03:17:33;3.90;;;2.70;;
10281;SDS011;5186;59.472;18.048;2023-04-06T03:19:58;3.50;;;2.30;;
10281;SDS011;5186;59.472;18.048;2023-04-06T03:22:24;3.23;;;2.30;;
10281;SDS011;5186;59.472;18.048;2023-04-06T03:24:50;3.47;;;2.27;;
10281;SDS011;5186;59.472;18.048;2023-04-06T03:27:15;3.83;;;2.80;;
10281;SDS011;5186;59.472;18.048;2023-04-06T03:29:41;4.40;;;2.50;;
10281;SDS011;5186;59.472;18.048;2023-04-06T03:32:07;3.57;;;2.40;;
10281;SDS011;5186;59.472;18.048;2023-04-06T03:34:32;2.90;;;2.40;;
10281;SDS011;5186;59.472;18.048;2023-04-06T03:36:58;4.07;;;2.60;;
10281;SDS011;5186;59.472;18.048;2023-04-06T03:39:23;3.97;;;2.40;;
10281;SDS011;5186;59.472;18.048;2023-04-06T03:41:49;4.43;;;2.60;;
10281;SDS011;5186;59.472;18.048;2023-04-06T03:44:14;4.07;;;2.70;;
10281;SDS011;5186;59.472;18.048;2023-04-06T03:46:41;4.50;;;2.70;;
10281;SDS011;5186;59.472;18.048;2023-04-06T03:49:07;4.33;;;2.60;;
10281;SDS011;5186;59.472;18.048;2023-04-06T03:51:32;3.13;;;2.67;;
10281;SDS011;5186;59.472;18.048;2023-04-06T03:53:58;3.07;;;2.50;;
10281;SDS011;5186;59.472;18.048;2023-04-06T03:56:23;6.27;;;2.83;;
10281;SDS011;5186;59.472;18.048;2023-04-06T03:58:49;4.50;;;2.80;;
10281;SDS011;5186;59.472;18.048;2023-04-06T04:01:19;5.70;;;2.70;;
10281;SDS011;5186;59.472;18.048;2023-04-06T04:03:45;7.03;;;2.80;;
10281;SDS011;5186;59.472;18.048;2023-04-06T04:06:10;4.60;;;2.70;;
10281;SDS011;5186;59.472;18.048;2023-04-06T04:08:36;6.87;;;3.03;;
10281;SDS011;5186;59.472;18.048;2023-04-06T04:11:01;6.17;;;3.27;;
10281;SDS011;5186;59.472;18.048;2023-04-06T04:13:27;3.73;;;2.93;;
10281;SDS011;5186;59.472;18.048;2023-04-06T04:15:52;3.97;;;2.43;;
10281;SDS011;5186;59.472;18.048;2023-04-06T04:18:18;4.40;;;2.90;;
10281;SDS011;5186;59.472;18.048;2023-04-06T04:20:44;4.53;;;2.73;;
10281;SDS011;5186;59.472;18.048;2023-04-06T04:23:09;6.50;;;2.77;;
10281;SDS011;5186;59.472;18.048;2023-04-06T04:25:35;3.60;;;2.60;;
10281;SDS011;5186;59.472;18.048;2023-04-06T04:28:01;4.17;;;2.90;;
10281;SDS011;5186;59.472;18.048;2023-04-06T04:30:27;3.60;;;2.70;;
10281;SDS011;5186;59.472;18.048;2023-04-06T04:32:53;5.57;;;3.00;;
10281;SDS011;5186;59.472;18.048;2023-04-06T04:35:18;5.30;;;3.43;;
10281;SDS011;5186;59.472;18.048;2023-04-06T04:37:44;6.70;;;2.63;;
10281;SDS011;5186;59.472;18.048;2023-04-06T04:40:10;6.93;;;2.90;;
10281;SDS011;5186;59.472;18.048;2023-04-06T04:42:36;4.47;;;3.07;;
10281;SDS011;5186;59.472;18.048;2023-04-06T04:45:02;3.93;;;3.30;;
10281;SDS011;5186;59.472;18.048;2023-04-06T04:47:27;6.47;;;3.03;;
10281;SDS011;5186;59.472;18.048;2023-04-06T04:49:53;5.63;;;3.20;;
10281;SDS011;5186;59.472;18.048;2023-04-06T04:52:18;5.33;;;3.37;;
10281;SDS011;5186;59.472;18.048;2023-04-06T04:54:44;5.07;;;3.27;;
10281;SDS011;5186;59.472;18.048;2023-04-06T04:57:11;5.03;;;3.57;;
10281;SDS011;5186;59.472;18.048;2023-04-06T04:59:37;5.13;;;2.97;;
10281;SDS011;5186;59.472;18.048;2023-04-06T05:02:03;4.97;;;3.13;;
10281;SDS011;5186;59.472;18.048;2023-04-06T05:04:28;6.03;;;3.40;;
10281;SDS011;5186;59.472;18.048;2023-04-06T05:07:07;4.60;;;3.30;;
10281;SDS011;5186;59.472;18.048;2023-04-06T05:09:33;5.40;;;3.37;;
10281;SDS011;5186;59.472;18.048;2023-04-06T05:11:59;6.60;;;3.40;;
10281;SDS011;5186;59.472;18.048;2023-04-06T05:14:26;4.33;;;3.70;;
10281;SDS011;5186;59.472;18.048;2023-04-06T05:16:52;5.17;;;3.30;;
10281;SDS011;5186;59.472;18.048;2023-04-06T05:19:18;6.13;;;3.33;;
10281;SDS011;5186;59.472;18.048;2023-04-06T05:21:44;5.97;;;3.50;;
10281;SDS011;5186;59.472;18.048;2023-04-06T05:24:10;6.17;;;3.97;;
10281;SDS011;5186;59.472;18.048;2023-04-06T05:26:35;6.97;;;3.90;;
10281;SDS011;5186;59.472;18.048;2023-04-06T05:29:01;6.10;;;3.83;;
10281;SDS011;5186;59.472;18.048;2023-04-06T05:31:27;6.70;;;3.73;;
10281;SDS011;5186;59.472;18.048;2023-04-06T05:33:52;5.70;;;3.50;;
10281;SDS011;5186;59.472;18.048;2023-04-06T05:36:18;6.20;;;3.23;;
10281;SDS011;5186;59.472;18.048;2023-04-06T05:38:43;4.77;;;3.43;;
10281;SDS011;5186;59.472;18.048;2023-04-06T05:41:09;5.43;;;3.13;;
10281;SDS011;5186;59.472;18.048;2023-04-06T05:43:35;4.63;;;3.40;;
10281;SDS011;5186;59.472;18.048;2023-04-06T05:46:01;6.13;;;3.50;;
10281;SDS011;5186;59.472;18.048;2023-04-06T05:48:27;4.40;;;3.47;;
10281;SDS011;5186;59.472;18.048;2023-04-06T05:50:52;5.87;;;3.57;;
10281;SDS011;5186;59.472;18.048;2023-04-06T05:53:18;4.63;;;3.20;;
10281;SDS011;5186;59.472;18.048;2023-04-06T05:55:45;5.20;;;3.53;;
10281;SDS011;5186;59.472;18.048;2023-04-06T05:58:11;5.20;;;3.40;;
10281;SDS011;5186;59.472;18.048;2023-04-06T06:00:37;3.50;;;2.90;;
10281;SDS011;5186;59.472;18.048;2023-04-06T06:03:03;5.10;;;3.20;;
10281;SDS011;5186;59.472;18.048;2023-04-06T06:05:33;5.63;;;3.40;;
10281;SDS011;5186;59.472;18.048;2023-04-06T06:07:59;4.90;;;3.17;;
10281;SDS011;5186;59.472;18.048;2023-04-06T06:10:27;4.47;;;3.30;;
10281;SDS011;5186;59.472;18.048;2023-04-06T06:12:52;4.13;;;2.70;;
10281;SDS011;5186;59.472;18.048;2023-04-06T06:15:18;4.30;;;3.30;;
10281;SDS011;5186;59.472;18.048;2023-04-06T06:17:44;5.53;;;3.03;;
10281;SDS011;5186;59.472;18.048;2023-04-06T06:20:09;4.63;;;3.13;;
10281;SDS011;5186;59.472;18.048;2023-04-06T06:22:35;4.33;;;3.00;;
10281;SDS011;5186;59.472;18.048;2023-04-06T06:25:01;3.10;;;2.80;;
10281;SDS011;5186;59.472;18.048;2023-04-06T06:27:27;4.10;;;2.90;;
10281;SDS011;5186;59.472;18.048;2023-04-06T06:29:52;4.33;;;2.80;;
10281;SDS011;5186;59.472;18.048;2023-04-06T06:32:18;5.03;;;2.90;;
10281;SDS011;5186;59.472;18.048;2023-04-06T06:34:44;4.53;;;2.90;;
10281;SDS011;5186;59.472;18.048;2023-04-06T06:37:09;4.67;;;3.50;;
10281;SDS011;5186;59.472;18.048;2023-04-06T06:39:35;3.87;;;2.87;;
10281;SDS011;5186;59.472;18.048;2023-04-06T06:42:01;4.63;;;2.90;;
10281;SDS011;5186;59.472;18.048;2023-04-06T06:44:27;3.93;;;3.13;;
10281;SDS011;5186;59.472;18.048;2023-04-06T06:46:53;3.50;;;2.57;;
10281;SDS011;5186;59.472;18.048;2023-04-06T06:49:18;4.10;;;2.73;;
10281;SDS011;5186;59.472;18.048;2023-04-06T06:51:45;5.77;;;2.77;;
10281;SDS011;5186;59.472;18.048;2023-04-06T06:54:11;3.13;;;2.37;;
10281;SDS011;5186;59.472;18.048;2023-04-06T06:56:37;5.27;;;2.50;;
10281;SDS011;5186;59.472;18.048;2023-04-06T06:59:04;4.27;;;2.40;;
10281;SDS011;5186;59.472;18.048;2023-04-06T07:01:31;3.60;;;2.83;;
10281;SDS011;5186;59.472;18.048;2023-04-06T07:03:58;4.23;;;3.10;;
10281;SDS011;5186;59.472;18.048;2023-04-06T07:06:24;4.07;;;3.23;;
10281;SDS011;5186;59.472;18.048;2023-04-06T07:08:49;3.70;;;2.93;;
10281;SDS011;5186;59.472;18.048;2023-04-06T07:11:15;5.93;;;2.97;;
10281;SDS011;5186;59.472;18.048;2023-04-06T07:13:42;3.87;;;3.17;;
10281;SDS011;5186;59.472;18.048;2023-04-06T07:16:08;4.40;;;3.00;;
10281;SDS011;5186;59.472;18.048;2023-04-06T07:18:33;3.80;;;2.87;;
10281;SDS011;5186;59.472;18.048;2023-04-06T07:20:59;4.50;;;3.07;;
10281;SDS011;5186;59.472;18.048;2023-04-06T07:23:24;3.53;;;2.60;;
10281;SDS011;5186;59.472;18.048;2023-04-06T07:25:50;4.20;;;3.40;;
10281;SDS011;5186;59.472;18.048;2023-04-06T07:28:17;3.70;;;3.17;;
10281;SDS011;5186;59.472;18.048;2023-04-06T07:30:42;5.03;;;2.90;;
10281;SDS011;5186;59.472;18.048;2023-04-06T07:33:08;3.20;;;2.90;;
10281;SDS011;5186;59.472;18.048;2023-04-06T07:35:34;3.10;;;2.80;;
10281;SDS011;5186;59.472;18.048;2023-04-06T07:38:01;4.70;;;2.90;;
10281;SDS011;5186;59.472;18.048;2023-04-06T07:40:27;3.87;;;3.03;;
10281;SDS011;5186;59.472;18.048;2023-04-06T07:42:53;3.10;;;2.77;;
10281;SDS011;5186;59.472;18.048;2023-04-06T07:45:19;3.40;;;3.00;;
10281;SDS011;5186;59.472;18.048;2023-04-06T07:47:44;3.00;;;2.70;;
10281;SDS011;5186;59.472;18.048;2023-04-06T07:50:10;4.47;;;2.60;;
10281;SDS011;5186;59.472;18.048;2023-04-06T07:52:36;3.80;;;2.53;;
10281;SDS011;5186;59.472;18.048;2023-04-06T07:55:03;4.53;;;2.77;;
10281;SDS011;5186;59.472;18.048;2023-04-06T07:57:28;4.40;;;2.90;;
10281;SDS011;5186;59.472;18.048;2023-04-06T07:59:54;3.93;;;2.80;;
10281;SDS011;5186;59.472;18.048;2023-04-06T08:02:20;3.97;;;2.40;;
10281;SDS011;5186;59.472;18.048;2023-04-06T08:04:45;4.10;;;2.70;;
10281;SDS011;5186;59.472;18.048;2023-04-06T08:07:11;3.10;;;2.30;;
10281;SDS011;5186;59.472;18.048;2023-04-06T08:09:37;2.50;;;1.80;;
10281;SDS011;5186;59.472;18.048;2023-04-06T08:12:02;3.50;;;2.00;;
10281;SDS011;5186;59.472;18.048;2023-04-06T08:14:28;2.53;;;2.00;;
10281;SDS011;5186;59.472;18.048;2023-04-06T08:16:54;3.63;;;2.13;;
10281;SDS011;5186;59.472;18.048;2023-04-06T08:19:20;2.23;;;1.63;;
10281;SDS011;5186;59.472;18.048;2023-04-06T08:21:45;1.90;;;1.60;;
10281;SDS011;5186;59.472;18.048;2023-04-06T08:24:12;1.93;;;1.63;;
10281;SDS011;5186;59.472;18.048;2023-04-06T08:26:38;1.87;;;1.40;;
10281;SDS011;5186;59.472;18.048;2023-04-06T08:29:04;3.50;;;1.70;;
10281;SDS011;5186;59.472;18.048;2023-04-06T08:31:32;1.80;;;1.60;;
10281;SDS011;5186;59.472;18.048;2023-04-06T08:33:58;2.37;;;1.90;;
10281;SDS011;5186;59.472;18.048;2023-04-06T08:36:24;3.53;;;1.90;;
10281;SDS011;5186;59.472;18.048;2023-04-06T08:38:49;2.53;;;1.67;;
10281;SDS011;5186;59.472;18.048;2023-04-06T08:41:15;1.70;;;1.60;;
10281;SDS011;5186;59.472;18.048;2023-04-06T08:43:49;2.67;;;1.80;;
10281;SDS011;5186;59.472;18.048;2023-04-06T08:46:21;2.80;;;1.73;;
10281;SDS011;5186;59.472;18.048;2023-04-06T08:48:53;3.00;;;2.23;;
10281;SDS011;5186;59.472;18.048;2023-04-06T08:51:19;2.07;;;1.87;;
10281;SDS011;5186;59.472;18.048;2023-04-06T08:53:47;2.10;;;1.67;;
10281;SDS011;5186;59.472;18.048;2023-04-06T08:56:14;1.63;;;1.53;;
10281;SDS011;5186;59.472;18.048;2023-04-06T08:58:41;2.57;;;2.00;;
10281;SDS011;5186;59.472;18.048;2023-04-06T09:01:08;2.27;;;1.80;;
10281;SDS011;5186;59.472;18.048;2023-04-06T09:03:37;2.13;;;1.60;;
10281;SDS011;5186;59.472;18.048;2023-04-06T09:06:04;2.70;;;1.40;;
10281;SDS011;5186;59.472;18.048;2023-04-06T09:08:32;1.63;;;1.40;;
10281;SDS011;5186;59.472;18.048;2023-04-06T09:10:58;1.33;;;1.23;;
10281;SDS011;5186;59.472;18.048;2023-04-06T09:13:25;2.30;;;1.27;;
10281;SDS011;5186;59.472;18.048;2023-04-06T09:16:00;2.03;;;1.60;;
10281;SDS011;5186;59.472;18.048;2023-04-06T09:18:28;1.93;;;1.20;;
10281;SDS011;5186;59.472;18.048;2023-04-06T09:20:58;1.40;;;1.20;;
10281;SDS011;5186;59.472;18.048;2023-04-06T09:23:31;1.83;;;1.20;;
10281;SDS011;5186;59.472;18.048;2023-04-06T09:26:10;2.77;;;1.37;;
10281;SDS011;5186;59.472;18.048;2023-04-06T09:28:48;2.33;;;1.40;;
10281;SDS011;5186;59.472;18.048;2023-04-06T09:31:15;1.63;;;1.47;;
10281;SDS011;5186;59.472;18.048;2023-04-06T09:33:47;2.30;;;1.53;;
10281;SDS011;5186;59.472;18.048;2023-04-06T09:36:12;2.03;;;1.50;;
10281;SDS011;5186;59.472;18.048;2023-04-06T09:39:00;1.93;;;1.60;;
10281;SDS011;5186;59.472;18.048;2023-04-06T09:41:33;1.90;;;1.60;;
10281;SDS011;5186;59.472;18.048;2023-04-06T09:44:06;2.07;;;1.70;;
10281;SDS011;5186;59.472;18.048;2023-04-06T09:46:42;2.37;;;1.40;;
10281;SDS011;5186;59.472;18.048;2023-04-06T09:49:09;2.20;;;1.30;;
10281;SDS011;5186;59.472;18.048;2023-04-06T09:51:37;3.10;;;1.83;;
10281;SDS011;5186;59.472;18.048;2023-04-06T09:54:04;1.80;;;1.53;;
10281;SDS011;5186;59.472;18.048;2023-04-06T09:56:56;2.67;;;1.53;;
10281;SDS011;5186;59.472;18.048;2023-04-06T10:02:05;1.40;;;1.30;;
10281;SDS011;5186;59.472;18.048;2023-04-06T10:04:43;2.73;;;1.40;;
10281;SDS011;5186;59.472;18.048;2023-04-06T10:07:25;3.50;;;1.20;;
10281;SDS011;5186;59.472;18.048;2023-04-06T10:09:52;1.67;;;1.30;;
10281;SDS011;5186;59.472;18.048;2023-04-06T10:12:19;3.00;;;1.53;;
10281;SDS011;5186;59.472;18.048;2023-04-06T10:14:45;5.50;;;1.80;;
10281;SDS011;5186;59.472;18.048;2023-04-06T10:17:11;3.83;;;1.40;;
10281;SDS011;5186;59.472;18.048;2023-04-06T10:22:18;1.50;;;1.30;;
10281;SDS011;5186;59.472;18.048;2023-04-06T10:24:50;2.30;;;1.40;;
10281;SDS011;5186;59.472;18.048;2023-04-06T10:27:16;3.37;;;1.50;;
10281;SDS011;5186;59.472;18.048;2023-04-06T10:29:51;1.77;;;1.17;;
10281;SDS011;5186;59.472;18.048;2023-04-06T10:32:17;2.23;;;1.40;;
10281;SDS011;5186;59.472;18.048;2023-04-06T10:34:43;1.60;;;1.30;;
10281;SDS011;5186;59.472;18.048;2023-04-06T10:37:15;1.50;;;1.20;;
10281;SDS011;5186;59.472;18.048;2023-04-06T10:39:51;2.27;;;1.20;;
10281;SDS011;5186;59.472;18.048;2023-04-06T10:42:36;1.87;;;1.30;;
10281;SDS011;5186;59.472;18.048;2023-04-06T10:45:05;1.60;;;1.30;;
10281;SDS011;5186;59.472;18.048;2023-04-06T10:47:39;1.50;;;1.37;;
10281;SDS011;5186;59.472;18.048;2023-04-06T10:50:05;3.00;;;1.37;;
10281;SDS011;5186;59.472;18.048;2023-04-06T10:52:31;2.40;;;1.53;;
10281;SDS011;5186;59.472;18.048;2023-04-06T10:54:57;2.20;;;1.40;;
10281;SDS011;5186;59.472;18.048;2023-04-06T10:57:29;1.83;;;1.37;;
10281;SDS011;5186;59.472;18.048;2023-04-06T10:59:58;4.33;;;1.33;;
10281;SDS011;5186;59.472;18.048;2023-04-06T11:02:23;1.40;;;1.30;;
10281;SDS011;5186;59.472;18.048;2023-04-06T11:04:56;1.40;;;1.30;;
10281;SDS011;5186;59.472;18.048;2023-04-06T11:07:26;1.30;;;1.20;;
10281;SDS011;5186;59.472;18.048;2023-04-06T11:09:54;3.20;;;1.40;;
10281;SDS011;5186;59.472;18.048;2023-04-06T11:12:20;1.93;;;1.43;;
10281;SDS011;5186;59.472;18.048;2023-04-06T11:17:26;1.77;;;1.50;;
10281;SDS011;5186;59.472;18.048;2023-04-06T11:19:53;1.80;;;1.60;;
10281;SDS011;5186;59.472;18.048;2023-04-06T11:22:19;1.93;;;1.30;;
10281;SDS011;5186;59.472;18.048;2023-04-06T11:24:45;3.27;;;1.57;;
10281;SDS011;5186;59.472;18.048;2023-04-06T11:27:11;3.00;;;1.30;;
10281;SDS011;5186;59.472;18.048;2023-04-06T11:29:37;1.60;;;1.20;;
10281;SDS011;5186;59.472;18.048;2023-04-06T11:32:06;1.97;;;1.23;;
10281;SDS011;5186;59.472;18.048;2023-04-06T11:34:34;2.63;;;1.37;;
10281;SDS011;5186;59.472;18.048;2023-04-06T11:37:02;3.20;;;1.40;;
10281;SDS011;5186;59.472;18.048;2023-04-06T11:39:38;2.97;;;1.30;;
10281;SDS011;5186;59.472;18.048;2023-04-06T11:42:05;1.70;;;1.37;;
10281;SDS011;5186;59.472;18.048;2023-04-06T11:44:32;1.70;;;1.13;;
10281;SDS011;5186;59.472;18.048;2023-04-06T11:47:04;1.37;;;1.27;;
10281;SDS011;5186;59.472;18.048;2023-04-06T11:49:31;2.23;;;1.50;;
10281;SDS011;5186;59.472;18.048;2023-04-06T11:51:58;1.63;;;1.17;;
10281;SDS011;5186;59.472;18.048;2023-04-06T11:54:31;1.30;;;1.20;;
10281;SDS011;5186;59.472;18.048;2023-04-06T11:57:03;3.13;;;1.10;;
10281;SDS011;5186;59.472;18.048;2023-04-06T11:59:30;1.77;;;1.37;;
10281;SDS011;5186;59.472;18.048;2023-04-06T12:01:59;1.27;;;1.17;;
10281;SDS011;5186;59.472;18.048;2023-04-06T12:04:26;3.47;;;1.40;;
10281;SDS011;5186;59.472;18.048;2023-04-06T12:06:52;2.00;;;1.23;;
10281;SDS011;5186;59.472;18.048;2023-04-06T12:09:17;2.13;;;1.23;;
10281;SDS011;5186;59.472;18.048;2023-04-06T12:11:43;1.77;;;1.10;;
10281;SDS011;5186;59.472;18.048;2023-04-06T12:14:09;1.33;;;1.13;;
10281;SDS011;5186;59.472;18.048;2023-04-06T12:16:34;2.50;;;1.50;;
10281;SDS011;5186;59.472;18.048;2023-04-06T12:19:00;1.30;;;1.20;;
10281;SDS011;5186;59.472;18.048;2023-04-06T12:21:27;1.20;;;1.10;;
10281;SDS011;5186;59.472;18.048;2023-04-06T12:24:13;2.53;;;1.30;;
10281;SDS011;5186;59.472;18.048;2023-04-06T12:26:38;1.83;;;1.50;;
10281;SDS011;5186;59.472;18.048;2023-04-06T12:29:06;1.50;;;1.40;;
10281;SDS011;5186;59.472;18.048;2023-04-06T12:31:32;1.80;;;1.47;;
10281;SDS011;5186;59.472;18.048;2023-04-06T12:34:00;2.10;;;1.20;;
10281;SDS011;5186;59.472;18.048;2023-04-06T12:36:27;2.33;;;1.40;;
10281;SDS011;5186;59.472;18.048;2023-04-06T12:38:53;2.93;;;1.43;;
10281;SDS011;5186;59.472;18.048;2023-04-06T12:41:19;2.17;;;1.53;;
10281;SDS011;5186;59.472;18.048;2023-04-06T12:43:45;3.03;;;1.57;;
10281;SDS011;5186;59.472;18.048;2023-04-06T12:46:10;1.50;;;1.30;;
10281;SDS011;5186;59.472;18.048;2023-04-06T12:48:36;2.27;;;1.30;;
10281;SDS011;5186;59.472;18.048;2023-04-06T12:51:03;2.03;;;1.37;;
10281;SDS011;5186;59.472;18.048;2023-04-06T12:53:30;2.50;;;1.60;;
10281;SDS011;5186;59.472;18.048;2023-04-06T12:55:56;1.70;;;1.60;;
10281;SDS011;5186;59.472;18.048;2023-04-06T12:58:23;1.40;;;1.27;;
10281;SDS011;5186;59.472;18.048;2023-04-06T13:00:51;2.00;;;1.60;;
10281;SDS011;5186;59.472;18.048;2023-04-06T13:03:18;1.80;;;1.50;;
10281;SDS011;5186;59.472;18.048;2023-04-06T13:05:45;2.23;;;1.43;;
10281;SDS011;5186;59.472;18.048;2023-04-06T13:08:12;1.53;;;1.43;;
10281;SDS011;5186;59.472;18.048;2023-04-06T13:10:42;2.37;;;1.33;;
10281;SDS011;5186;59.472;18.048;2023-04-06T13:13:09;1.53;;;1.33;;
10281;SDS011;5186;59.472;18.048;2023-04-06T13:15:34;2.30;;;1.37;;
10281;SDS011;5186;59.472;18.048;2023-04-06T13:18:01;3.00;;;1.30;;
10281;SDS011;5186;59.472;18.048;2023-04-06T13:20:27;2.17;;;1.67;;
10281;SDS011;5186;59.472;18.048;2023-04-06T13:22:53;3.50;;;1.67;;
10281;SDS011;5186;59.472;18.048;2023-04-06T13:25:18;1.67;;;1.10;;
10281;SDS011;5186;59.472;18.048;2023-04-06T13:27:45;1.30;;;1.20;;
10281;SDS011;5186;59.472;18.048;2023-04-06T13:30:12;2.30;;;1.10;;
10281;SDS011;5186;59.472;18.048;2023-04-06T13:32:38;3.00;;;1.47;;
10281;SDS011;5186;59.472;18.048;2023-04-06T13:35:04;2.03;;;1.60;;
10281;SDS011;5186;59.472;18.048;2023-04-06T13:37:31;1.90;;;1.50;;
10281;SDS011;5186;59.472;18.048;2023-04-06T13:39:57;2.70;;;1.37;;
10281;SDS011;5186;59.472;18.048;2023-04-06T13:42:22;3.17;;;1.47;;
10281;SDS011;5186;59.472;18.048;2023-04-06T13:44:48;2.73;;;1.57;;
10281;SDS011;5186;59.472;18.048;2023-04-06T13:47:15;2.07;;;1.20;;
10281;SDS011;5186;59.472;18.048;2023-04-06T13:49:41;1.60;;;1.30;;
10281;SDS011;5186;59.472;18.048;2023-04-06T13:52:07;1.87;;;1.33;;
10281;SDS011;5186;59.472;18.048;2023-04-06T13:54:34;1.40;;;1.30;;
10281;SDS011;5186;59.472;18.048;2023-04-06T13:57:00;2.70;;;1.53;;
10281;SDS011;5186;59.472;18.048;2023-04-06T13:59:31;1.50;;;1.40;;
10281;SDS011;5186;59.472;18.048;2023-04-06T14:01:58;2.27;;;1.53;;
10281;SDS011;5186;59.472;18.048;2023-04-06T14:04:24;5.10;;;1.70;;
10281;SDS011;5186;59.472;18.048;2023-04-06T14:06:49;2.33;;;1.50;;
10281;SDS011;5186;59.472;18.048;2023-04-06T14:09:15;2.00;;;1.50;;
10281;SDS011;5186;59.472;18.048;2023-04-06T14:11:41;2.60;;;1.73;;
10281;SDS011;5186;59.472;18.048;2023-04-06T14:14:06;2.27;;;1.50;;
10281;SDS011;5186;59.472;18.048;2023-04-06T14:16:32;4.60;;;2.03;;
10281;SDS011;5186;59.472;18.048;2023-04-06T14:18:57;1.67;;;1.50;;
10281;SDS011;5186;59.472;18.048;2023-04-06T14:21:23;4.03;;;1.93;;
10281;SDS011;5186;59.472;18.048;2023-04-06T14:23:49;1.70;;;1.60;;
10281;SDS011;5186;59.472;18.048;2023-04-06T14:26:15;2.57;;;1.40;;
10281;SDS011;5186;59.472;18.048;2023-04-06T14:28:41;1.60;;;1.50;;
10281;SDS011;5186;59.472;18.048;2023-04-06T14:31:10;1.37;;;1.20;;
10281;SDS011;5186;59.472;18.048;2023-04-06T14:33:38;2.73;;;1.70;;
10281;SDS011;5186;59.472;18.048;2023-04-06T14:36:04;2.17;;;1.33;;
10281;SDS011;5186;59.472;18.048;2023-04-06T14:38:33;1.70;;;1.60;;
10281;SDS011;5186;59.472;18.048;2023-04-06T14:40:59;1.50;;;1.40;;
10281;SDS011;5186;59.472;18.048;2023-04-06T14:43:25;1.47;;;1.37;;
10281;SDS011;5186;59.472;18.048;2023-04-06T14:45:51;1.57;;;1.47;;
10281;SDS011;5186;59.472;18.048;2023-04-06T14:48:17;2.20;;;1.43;;
10281;SDS011;5186;59.472;18.048;2023-04-06T14:50:56;3.30;;;1.70;;
10281;SDS011;5186;59.472;18.048;2023-04-06T14:53:22;2.17;;;1.30;;